Latest Weather Observations for Butlers Gorge

IDT60801

Issued at 9:21 pm EST Thursday 24 September 2020 (issued every 10 minutes, with the page automatically refreshed every 10 minutes)

About weather observations | Map of weather stations | Latest weather observations for TAS | Other Formats
Station Details ID: 096003 Name: BUTLERS GORGE Lat: -42.28 Lon: 146.28 Height: 667.0 m
Data from the previous 72 hours. | See also: Recent months at Butlers Gorge
Date/Time
EST
Temp
°C
App
Temp
°C
Dew
Point
°C
Rel
Hum
%
Delta-T
°C
Wind Press
QNH
hPa
Press
MSL
hPa
Rain since
9am
mm
Dir  Spd
km/h
Gust
km/h
Spd
kts
Gust
kts
24/09:00pm -0.4 -2.6 -1.2 94 0.3 CALM 0 0 0 0 - - 0.6
24/08:30pm 0.1 -3.1 -0.7 94 0.3 ESE 6 7 3 4 - - 0.6
24/08:00pm 0.8 -1.2 -0.2 93 0.4 CALM 0 0 0 0 - - 0.6
24/07:30pm 1.6 -0.7 0.6 93 0.4 WSW 2 6 1 3 - - 0.6
24/07:00pm 2.1 -0.1 0.8 91 0.5 WSW 2 6 1 3 - - 0.6
24/06:30pm 3.1 0.2 1.3 88 0.7 WSW 6 7 3 4 - - 0.6
24/06:00pm 4.5 1.6 1.4 80 1.3 W 6 9 3 5 - - 0.6
24/05:30pm 5.1 1.6 1.2 76 1.6 SW 9 15 5 8 - - 0.6
24/05:00pm 5.8 2.3 1.2 72 1.9 WSW 9 17 5 9 - - 0.6
24/04:30pm 6.4 3.6 1.9 73 1.9 WNW 6 9 3 5 - - 0.6
24/04:00pm 5.9 1.7 1.8 75 1.7 WSW 13 19 7 10 - - 0.6
24/03:30pm 6.0 3.0 1.7 74 1.8 W 7 13 4 7 - - 0.6
24/03:00pm 6.6 2.8 1.5 70 2.1 WNW 11 17 6 9 - - 0.6
24/02:30pm 6.2 2.4 1.7 73 1.9 NW 11 17 6 9 - - 0.6
24/02:00pm 6.2 3.0 2.8 79 1.5 WSW 9 19 5 10 - - 0.6
24/01:30pm 7.1 3.1 0.5 63 2.7 W 11 19 6 10 - - 0.2
24/01:00pm 7.5 3.3 1.8 67 2.4 NW 13 20 7 11 - - 0.2
24/12:30pm 6.5 3.3 3.3 80 1.4 WSW 9 17 5 9 - - 0.2
24/12:00pm 7.8 4.5 2.3 68 2.4 NW 9 17 5 9 - - 0.2
24/11:30am 6.3 3.3 2.0 74 1.8 W 7 11 4 6 - - 0.2
24/11:00am 5.9 3.0 2.5 79 1.5 WSW 7 13 4 7 - - 0.2
24/10:30am 5.5 1.9 0.3 69 2.1 NNW 9 17 5 9 - - 0.0
24/10:00am 5.7 2.6 1.1 72 1.9 NNW 7 17 4 9 - - 0.0
24/09:30am 4.5 0.5 0.8 77 1.5 WSW 11 17 6 9 - - 0.0
24/09:00am 4.7 1.1 0.8 76 1.6 NW 9 17 5 9 - - 7.2
24/08:30am 4.3 1.2 1.2 80 1.3 NW 7 11 4 6 - - 7.2
24/08:00am 3.3 0.3 1.0 85 0.9 N 6 9 3 5 - - 7.2
24/07:30am 2.2 0.4 1.3 94 0.4 CALM 0 0 0 0 - - 7.2
24/07:00am 1.5 -0.4 0.8 95 0.3 CALM 0 0 0 0 - - 7.2
24/06:30am 1.0 -1.3 0.1 94 0.3 WSW 2 6 1 3 - - 7.2
24/06:00am 0.9 -1.1 -0.1 93 0.4 CALM 0 6 0 3 - - 7.2
24/05:30am 1.2 -1.6 -0.1 91 0.5 NNW 4 7 2 4 - - 7.2
24/05:00am 1.9 -0.8 0.4 90 0.6 WNW 4 7 2 4 - - 7.2
24/04:30am 2.1 -1.1 0.6 90 0.6 W 7 15 4 8 - - 7.2
24/04:00am 1.9 -0.4 0.6 91 0.5 NNW 2 7 1 4 - - 7.2
24/03:30am 2.3 -0.7 0.7 89 0.6 W 6 11 3 6 - - 7.2
24/03:00am 2.0 -1.0 0.8 92 0.5 W 6 9 3 5 - - 7.2
24/02:30am 2.7 -0.5 0.9 88 0.7 SW 7 9 4 5 - - 7.2
24/02:00am 2.7 0.2 1.7 93 0.4 WSW 4 7 2 4 - - 7.2
24/01:30am 2.7 0.2 1.8 94 0.4 W 4 7 2 4 - - 7.0
24/01:00am 2.5 0.7 1.3 92 0.5 CALM 0 7 0 4 - - 7.0
24/12:30am 3.0 0.2 1.8 92 0.5 WSW 6 9 3 5 - - 6.8
24/12:00am 3.1 0.0 1.6 90 0.6 W 7 13 4 7 - - 6.8
 
Date/Time
EST
Temp
°C
App
Temp
°C
Dew
Point
°C
Rel
Hum
%
Delta-T
°C
Wind Press
QNH
hPa
Press
MSL
hPa
Rain since
9am
mm
Dir  Spd
km/h
Gust
km/h
Spd
kts
Gust
kts
23/11:30pm 2.9 0.5 1.9 93 0.4 WSW 4 9 2 5 - - 6.8
23/11:00pm 2.8 -0.1 1.6 92 0.5 NE 6 9 3 5 - - 6.6
23/10:30pm 3.0 0.9 1.7 91 0.5 NNW 2 9 1 5 - - 6.6
23/10:00pm 3.2 1.5 2.0 92 0.5 CALM 0 0 0 0 - - 6.6
23/09:30pm 3.5 0.2 2.2 91 0.5 WSW 9 15 5 8 - - 6.6
23/09:00pm 3.9 0.9 2.3 89 0.7 NNW 7 11 4 6 - - 6.6
23/08:30pm 3.8 0.9 2.5 91 0.5 NW 7 15 4 8 - - 6.6
23/08:00pm 4.2 1.3 2.6 89 0.7 W 7 15 4 8 - - 6.6
23/07:30pm 4.6 1.8 3.3 91 0.6 WSW 7 9 4 5 - - 6.4
23/07:00pm 4.8 1.6 3.3 90 0.6 W 9 19 5 10 - - 6.2
23/06:30pm 4.9 1.7 3.2 89 0.7 WSW 9 15 5 8 - - 6.0
23/06:00pm 5.0 1.3 2.5 84 1.1 SW 11 17 6 9 - - 5.6
23/05:30pm 5.8 2.4 3.8 87 0.9 W 11 20 6 11 - - 4.6
23/05:00pm 6.4 3.5 4.4 87 0.9 WSW 9 17 5 9 - - 4.4
23/04:30pm 6.6 3.6 4.3 85 1.0 WSW 9 20 5 11 - - 4.4
23/04:00pm 6.4 3.4 3.9 84 1.1 WSW 9 19 5 10 - - 4.2
23/03:30pm 6.8 3.1 4.5 85 1.0 WSW 13 24 7 13 - - 3.6
23/03:00pm 6.8 2.7 4.3 84 1.1 WSW 15 32 8 17 - - 2.8
23/02:30pm 7.8 2.8 4.4 79 1.5 SW 20 37 11 20 - - 2.4
23/02:00pm 7.0 1.9 4.0 81 1.3 SW 20 32 11 17 - - 2.4
23/01:30pm 7.2 2.8 4.7 84 1.1 SW 17 30 9 16 - - 2.2
23/01:00pm 7.1 2.7 4.9 86 1.0 SW 17 28 9 15 - - 2.0
23/12:30pm 7.0 3.2 4.0 81 1.3 SW 13 26 7 14 - - 2.0
23/12:00pm 7.8 3.8 5.1 83 1.2 SW 15 26 8 14 - - 1.2
23/11:30am 7.2 4.3 4.9 85 1.1 WSW 9 17 5 9 - - 1.0
23/11:00am 6.7 3.2 3.7 81 1.3 SW 11 17 6 9 - - 0.8
23/10:30am 7.1 3.8 4.4 83 1.2 WSW 11 20 6 11 - - 0.4
23/10:00am 6.8 3.5 4.6 86 1.0 W 11 20 6 11 - - 0.4
23/09:30am 7.0 4.5 4.5 84 1.1 WNW 7 13 4 7 - - 0.0
23/09:00am 6.9 4.0 4.6 85 1.0 WSW 9 24 5 13 - - 20.8
23/08:30am 6.5 2.4 4.2 85 1.0 W 15 37 8 20 - - 20.8
23/08:00am 6.1 2.0 4.3 88 0.8 W 15 30 8 16 - - 20.4
23/07:30am 6.0 2.2 3.8 86 1.0 W 13 26 7 14 - - 20.0
23/07:00am 5.7 2.3 3.9 88 0.8 W 11 22 6 12 - - 19.6
23/06:30am 5.6 2.1 3.6 87 0.9 W 11 24 6 13 - - 18.6
23/06:00am 5.5 2.7 3.3 86 1.0 WNW 7 11 4 6 - - 18.0
23/05:30am 5.3 1.7 3.2 86 0.9 W 11 20 6 11 - - 18.0
23/05:00am 5.2 1.2 2.9 85 1.0 WNW 13 26 7 14 - - 17.6
23/04:30am 5.1 1.1 2.8 85 1.0 W 13 32 7 17 - - 17.4
23/04:00am 4.8 1.6 2.8 87 0.9 WNW 9 26 5 14 - - 17.4
23/03:30am 4.7 1.1 2.7 87 0.8 SW 11 26 6 14 - - 17.0
23/03:00am 4.6 0.5 2.3 85 1.0 WNW 13 30 7 16 - - 17.0
23/02:30am 4.7 1.4 2.6 86 0.9 WSW 9 19 5 10 - - 16.6
23/02:00am 4.7 1.0 2.4 85 1.0 WNW 11 26 6 14 - - 16.2
23/01:30am 4.7 1.4 2.6 86 0.9 NW 9 22 5 12 - - 15.6
23/01:00am 4.8 0.7 2.5 85 1.0 W 13 28 7 15 - - 15.4
23/12:30am 4.6 0.9 2.6 87 0.8 W 11 20 6 11 - - 15.2
23/12:00am 4.5 1.2 2.7 88 0.8 WNW 9 13 5 7 - - 14.8
 
Date/Time
EST
Temp
°C
App
Temp
°C
Dew
Point
°C
Rel
Hum
%
Delta-T
°C
Wind Press
QNH
hPa
Press
MSL
hPa
Rain since
9am
mm
Dir  Spd
km/h
Gust
km/h
Spd
kts
Gust
kts
22/11:30pm 4.7 1.5 3.0 89 0.7 WSW 9 15 5 8 - - 14.6
22/11:00pm 5.0 2.2 2.9 86 0.9 WSW 7 13 4 7 - - 14.0
22/10:30pm 4.9 0.9 2.9 87 0.9 NW 13 28 7 15 - - 13.2
22/10:00pm 5.2 2.0 3.2 87 0.9 WNW 9 20 5 11 - - 12.2
22/09:30pm 5.8 1.9 3.6 86 1.0 WNW 13 26 7 14 - - 11.2
22/09:00pm 5.6 2.6 3.9 89 0.7 WNW 9 17 5 9 - - 10.8
22/08:30pm 5.7 1.4 3.4 85 1.0 NW 15 24 8 13 - - 10.0
22/08:00pm 5.8 2.4 3.8 87 0.9 WNW 11 20 6 11 - - 9.2
22/07:30pm 5.6 2.5 3.4 86 1.0 NNW 9 17 5 9 - - 9.2
22/07:00pm 5.8 2.5 2.4 79 1.4 WNW 9 17 5 9 - - 9.0
22/06:30pm 6.1 2.1 3.1 81 1.3 WNW 13 30 7 16 - - 9.0
22/06:00pm 6.2 2.4 3.9 85 1.0 WNW 13 24 7 13 - - 9.0
22/05:30pm 6.6 3.7 4.8 88 0.8 WNW 9 19 5 10 - - 8.2
22/05:00pm 6.6 4.3 4.9 89 0.8 WSW 6 7 3 4 - - 8.2
22/04:30pm 6.4 3.5 4.4 87 0.9 W 9 20 5 11 - - 7.2
22/04:00pm 6.7 3.9 5.0 89 0.8 SW 9 15 5 8 - - 5.2
22/03:30pm 7.2 4.4 5.2 87 0.9 W 9 15 5 8 - - 3.2
22/03:00pm 7.5 3.9 5.1 85 1.1 W 13 20 7 11 - - 1.8
22/02:30pm 9.3 6.1 5.1 75 2.0 WNW 11 26 6 14 - - 0.6
22/02:00pm 9.5 6.1 5.7 77 1.8 WNW 13 24 7 13 - - 0.6
22/01:30pm 9.8 5.9 5.4 74 2.1 W 15 26 8 14 - - 0.6
22/01:00pm 9.5 5.5 4.9 73 2.1 WNW 15 26 8 14 - - 0.6
22/12:30pm 8.6 5.8 5.0 78 1.7 NW 9 19 5 10 - - 0.6
22/12:00pm 8.0 4.7 4.4 78 1.6 W 11 33 6 18 - - 0.4
22/11:30am 8.9 4.8 4.1 72 2.2 NW 15 28 8 15 - - 0.0
22/11:00am 8.7 3.7 4.7 76 1.8 NW 20 39 11 21 - - 0.0
22/10:30am 9.3 4.9 4.9 74 2.0 WNW 17 30 9 16 - - 0.0
22/10:00am 8.3 4.2 4.3 76 1.8 WNW 15 28 8 15 - - 0.0
22/09:30am 7.9 3.6 3.4 73 2.0 W 15 32 8 17 - - 0.0
22/09:00am 7.1 2.0 3.2 76 1.7 NW 19 35 10 19 - - 3.8
22/08:30am 7.2 3.1 4.2 81 1.4 WNW 15 30 8 16 - - 3.8
22/08:00am 7.4 4.1 4.4 81 1.4 NW 11 20 6 11 - - 3.6
22/07:30am 6.2 2.8 4.0 86 1.0 WNW 11 20 6 11 - - 3.6
22/07:00am 6.1 3.0 3.6 84 1.1 WNW 9 20 5 11 - - 3.0
22/06:30am 5.7 3.2 3.9 88 0.8 WNW 6 13 3 7 - - 3.0
22/06:00am 5.9 3.4 3.6 85 1.0 NNW 6 13 3 7 - - 2.4
22/05:30am 5.8 3.0 3.3 84 1.1 WNW 7 19 4 10 - - 2.0
22/05:00am 6.0 2.9 3.5 84 1.1 NW 9 19 5 10 - - 1.8
22/04:30am 5.8 3.0 3.3 84 1.1 NNW 7 13 4 7 - - 1.8
22/04:00am 6.1 2.6 3.4 83 1.2 NW 11 22 6 12 - - 1.6
22/03:30am 6.3 2.8 3.5 82 1.2 W 11 26 6 14 - - 1.2
22/03:00am 6.6 3.0 3.2 79 1.5 NW 11 20 6 11 - - 0.8
22/02:30am 7.7 4.0 2.4 69 2.3 NW 11 19 6 10 - - 0.4
22/02:00am 8.0 4.0 2.7 69 2.3 NNW 13 22 7 12 - - 0.4
22/01:30am 8.0 4.7 2.5 68 2.4 N 9 19 5 10 - - 0.4
22/01:00am 8.1 4.4 2.1 66 2.6 NNW 11 22 6 12 - - 0.4
22/12:30am 8.5 5.0 1.2 60 3.1 NW 9 20 5 11 - - 0.4
22/12:00am 8.2 4.1 2.0 65 2.7 NW 13 26 7 14 - - 0.4
 
Date/Time
EST
Temp
°C
App
Temp
°C
Dew
Point
°C
Rel
Hum
%
Delta-T
°C
Wind Press
QNH
hPa
Press
MSL
hPa
Rain since
9am
mm
Dir  Spd
km/h
Gust
km/h
Spd
kts
Gust
kts
21/11:30pm 8.0 4.2 1.8 65 2.7 NW 11 26 6 14 - - 0.4
21/11:00pm 8.2 4.5 2.2 66 2.6 NW 11 20 6 11 - - 0.4
21/10:30pm 6.7 3.8 2.4 74 1.8 WNW 7 13 4 7 - - 0.4
21/10:00pm 6.4 3.5 1.7 72 2.0 N 6 15 3 8 - - 0.4
21/09:30pm 6.0 3.2 1.9 75 1.7 SW 6 11 3 6 - - 0.4

Other formats

Comma delimited format used in spreadsheet applications
http://www.bom.gov.au/fwo/IDT60801/IDT60801.94959.axf

JavaScript Object Notation format (JSON) in row-major order
http://www.bom.gov.au/fwo/IDT60801/IDT60801.94959.json

Data quality

Most of these data are generated automatically and are frequently updated. Quality checks on data are not normally performed. It is possible for incorrect values to appear. Refer to information at About Latest Weather Observations and please check the disclaimer before using these data.